sensor_id;sensor_type;location;lat;lon;timestamp;pressure;altitude;pressure_sealevel;temperature;humidity
84647;BME280;74876;52.404;16.896;2024-02-21T00:00:09;101136.0;;;5.63;93.69
84647;BME280;74876;52.404;16.896;2024-02-21T00:15:09;101127.0;;;5.55;93.89
84647;BME280;74876;52.404;16.896;2024-02-21T00:30:09;101115.0;;;5.41;94.36
84647;BME280;74876;52.404;16.896;2024-02-21T00:45:09;101104.0;;;5.39;94.72
84647;BME280;74876;52.404;16.896;2024-02-21T01:00:09;101085.0;;;5.43;94.83
84647;BME280;74876;52.404;16.896;2024-02-21T01:15:09;101051.0;;;5.47;94.9
84647;BME280;74876;52.404;16.896;2024-02-21T01:30:09;101032.0;;;5.46;94.94
84647;BME280;74876;52.404;16.896;2024-02-21T01:45:09;101032.0;;;5.55;94.88
84647;BME280;74876;52.404;16.896;2024-02-21T02:00:10;101033.0;;;5.65;94.96
84647;BME280;74876;52.404;16.896;2024-02-21T02:15:09;101010.0;;;5.63;95.13
84647;BME280;74876;52.404;16.896;2024-02-21T02:30:09;101006.0;;;5.67;95.47
84647;BME280;74876;52.404;16.896;2024-02-21T02:45:10;100986.0;;;5.69;95.64
84647;BME280;74876;52.404;16.896;2024-02-21T03:00:10;100969.0;;;5.71;95.84
84647;BME280;74876;52.404;16.896;2024-02-21T03:15:10;100960.0;;;5.73;95.61
84647;BME280;74876;52.404;16.896;2024-02-21T03:30:09;100953.0;;;5.72;95.59
84647;BME280;74876;52.404;16.896;2024-02-21T03:45:10;100939.0;;;5.7;95.55
84647;BME280;74876;52.404;16.896;2024-02-21T04:00:10;100913.0;;;5.68;95.38
84647;BME280;74876;52.404;16.896;2024-02-21T04:20:09;100901.0;;;5.71;94.97
84647;BME280;74876;52.404;16.896;2024-02-21T04:35:09;100889.0;;;5.73;94.83
84647;BME280;74876;52.404;16.896;2024-02-21T04:50:09;100879.0;;;5.78;94.51
84647;BME280;74876;52.404;16.896;2024-02-21T05:05:09;100857.0;;;5.78;94.7
84647;BME280;74876;52.404;16.896;2024-02-21T05:20:09;100847.0;;;5.79;94.89
84647;BME280;74876;52.404;16.896;2024-02-21T05:35:09;100837.0;;;5.79;95.28
84647;BME280;74876;52.404;16.896;2024-02-21T05:50:09;100818.0;;;5.77;95.48
84647;BME280;74876;52.404;16.896;2024-02-21T06:05:10;100826.0;;;5.85;95.15
84647;BME280;74876;52.404;16.896;2024-02-21T06:20:09;100808.0;;;5.93;94.6
84647;BME280;74876;52.404;16.896;2024-02-21T06:35:09;100803.0;;;5.97;94.3
84647;BME280;74876;52.404;16.896;2024-02-21T06:50:09;100793.0;;;6.03;94.09
84647;BME280;74876;52.404;16.896;2024-02-21T07:15:09;100780.0;;;6.15;93.77
84647;BME280;74876;52.404;16.896;2024-02-21T07:30:09;100767.0;;;6.21;93.81
84647;BME280;74876;52.404;16.896;2024-02-21T07:45:09;100756.0;;;6.25;93.47
84647;BME280;74876;52.404;16.896;2024-02-21T08:05:09;100744.0;;;6.37;93.19
84647;BME280;74876;52.404;16.896;2024-02-21T08:25:09;100768.0;;;6.62;92.09
84647;BME280;74876;52.404;16.896;2024-02-21T08:45:09;100762.0;;;6.74;91.66
84647;BME280;74876;52.404;16.896;2024-02-21T09:00:09;100735.0;;;6.73;91.81
84647;BME280;74876;52.404;16.896;2024-02-21T09:15:09;100724.0;;;6.84;91.72
84647;BME280;74876;52.404;16.896;2024-02-21T09:30:09;100722.0;;;7.03;90.89
84647;BME280;74876;52.404;16.896;2024-02-21T09:45:09;100708.0;;;6.96;90.83
84647;BME280;74876;52.404;16.896;2024-02-21T10:00:09;100706.0;;;7.03;91.04
84647;BME280;74876;52.404;16.896;2024-02-21T10:15:09;100705.0;;;7.14;90.22
84647;BME280;74876;52.404;16.896;2024-02-21T10:30:09;100706.0;;;7.45;88.97
84647;BME280;74876;52.404;16.896;2024-02-21T10:45:09;100678.0;;;7.75;87.59
84647;BME280;74876;52.404;16.896;2024-02-21T11:00:09;100645.0;;;8.18;85.91
84647;BME280;74876;52.404;16.896;2024-02-21T11:15:09;100625.0;;;8.27;84.98
84647;BME280;74876;52.404;16.896;2024-02-21T11:30:09;100604.0;;;8.24;84.86
84647;BME280;74876;52.404;16.896;2024-02-21T11:45:09;100576.0;;;8.25;85.38
84647;BME280;74876;52.404;16.896;2024-02-21T12:00:09;100569.0;;;8.35;85.2
84647;BME280;74876;52.404;16.896;2024-02-21T12:15:09;100595.0;;;8.4;84.75
84647;BME280;74876;52.404;16.896;2024-02-21T12:30:09;100545.0;;;8.39;83.95
84647;BME280;74876;52.404;16.896;2024-02-21T12:45:09;100541.0;;;8.45;83.24
84647;BME280;74876;52.404;16.896;2024-02-21T13:00:09;100509.0;;;8.57;83.35
84647;BME280;74876;52.404;16.896;2024-02-21T13:15:09;100507.0;;;8.6;83.18
84647;BME280;74876;52.404;16.896;2024-02-21T13:30:09;100504.0;;;8.63;82.95
84647;BME280;74876;52.404;16.896;2024-02-21T13:45:10;100481.0;;;8.7;82.74
84647;BME280;74876;52.404;16.896;2024-02-21T14:00:10;100475.0;;;8.7;82.73
84647;BME280;74876;52.404;16.896;2024-02-21T14:15:10;100468.0;;;8.73;82.61
84647;BME280;74876;52.404;16.896;2024-02-21T14:30:10;100465.0;;;8.77;82.4
84647;BME280;74876;52.404;16.896;2024-02-21T14:45:10;100449.0;;;8.73;82.37
84647;BME280;74876;52.404;16.896;2024-02-21T15:00:10;100438.0;;;8.74;82.0
84647;BME280;74876;52.404;16.896;2024-02-21T15:20:09;100422.0;;;8.72;82.16
84647;BME280;74876;52.404;16.896;2024-02-21T15:35:09;100416.0;;;8.68;81.86
84647;BME280;74876;52.404;16.896;2024-02-21T15:50:09;100404.0;;;8.62;81.83
84647;BME280;74876;52.404;16.896;2024-02-21T16:05:09;100406.0;;;8.59;82.09
84647;BME280;74876;52.404;16.896;2024-02-21T16:20:09;100395.0;;;8.51;82.61
84647;BME280;74876;52.404;16.896;2024-02-21T16:35:09;100392.0;;;8.47;82.9
84647;BME280;74876;52.404;16.896;2024-02-21T16:50:09;100378.0;;;8.43;83.2
84647;BME280;74876;52.404;16.896;2024-02-21T17:05:09;100370.0;;;8.43;83.19
84647;BME280;74876;52.404;16.896;2024-02-21T17:30:09;100348.0;;;8.44;82.99
84647;BME280;74876;52.404;16.896;2024-02-21T17:50:10;100320.0;;;8.41;83.03
84647;BME280;74876;52.404;16.896;2024-02-21T18:10:09;100284.0;;;8.33;83.01
84647;BME280;74876;52.404;16.896;2024-02-21T18:25:09;100288.0;;;8.24;83.28
84647;BME280;74876;52.404;16.896;2024-02-21T18:50:09;100281.0;;;8.01;83.66
84647;BME280;74876;52.404;16.896;2024-02-21T19:05:09;100270.0;;;7.85;84.01
84647;BME280;74876;52.404;16.896;2024-02-21T19:25:09;100245.0;;;7.97;82.38
84647;BME280;74876;52.404;16.896;2024-02-21T19:40:09;100239.0;;;8.08;81.91
84647;BME280;74876;52.404;16.896;2024-02-21T19:55:10;100222.0;;;8.03;81.64
84647;BME280;74876;52.404;16.896;2024-02-21T20:10:09;100196.0;;;7.81;82.31
84647;BME280;74876;52.404;16.896;2024-02-21T20:25:10;100165.0;;;7.55;83.56
84647;BME280;74876;52.404;16.896;2024-02-21T20:40:09;100141.0;;;7.31;84.34
84647;BME280;74876;52.404;16.896;2024-02-21T20:55:10;100098.0;;;7.08;84.86
84647;BME280;74876;52.404;16.896;2024-02-21T21:10:10;100080.0;;;6.84;86.06
84647;BME280;74876;52.404;16.896;2024-02-21T21:25:10;100069.0;;;6.58;86.83
84647;BME280;74876;52.404;16.896;2024-02-21T21:40:09;100049.0;;;6.35;87.47
84647;BME280;74876;52.404;16.896;2024-02-21T21:55:10;100021.0;;;6.18;87.67
84647;BME280;74876;52.404;16.896;2024-02-21T22:10:09;100004.0;;;5.99;88.06
